createdAt,value
2018-12-31T00:01:27.308Z,33.18
2018-12-31T00:03:55.707Z,38.67
2018-12-31T00:06:24.124Z,28.95
2018-12-31T00:08:52.579Z,35.60
2018-12-31T00:11:21.004Z,32.93
2018-12-31T00:13:49.408Z,29.10
2018-12-31T00:16:17.886Z,26.60
2018-12-31T00:18:46.288Z,28.70
2018-12-31T00:21:14.697Z,30.75
2018-12-31T00:23:43.095Z,33.60
2018-12-31T00:26:11.508Z,34.43
2018-12-31T00:28:39.922Z,31.97
2018-12-31T00:31:08.325Z,35.28
2018-12-31T00:33:36.735Z,35.38
2018-12-31T00:36:05.128Z,30.50
2018-12-31T00:38:33.537Z,31.95
2018-12-31T00:41:01.943Z,31.23
2018-12-31T00:43:30.351Z,32.93
2018-12-31T00:45:58.748Z,32.98
2018-12-31T00:48:27.156Z,36.58
2018-12-31T00:50:55.563Z,35.40
2018-12-31T00:53:23.967Z,34.03
2018-12-31T00:55:52.368Z,34.80
2018-12-31T00:58:20.781Z,37.95
2018-12-31T01:00:49.186Z,35.00
2018-12-31T01:03:17.591Z,40.15
2018-12-31T01:05:45.990Z,40.15
2018-12-31T01:08:14.659Z,39.70
2018-12-31T01:10:43.136Z,39.15
2018-12-31T01:13:11.543Z,39.60
2018-12-31T01:15:39.952Z,40.20
2018-12-31T01:18:08.355Z,42.13
2018-12-31T01:20:37.035Z,44.05
2018-12-31T01:23:05.444Z,41.95
2018-12-31T01:25:33.848Z,43.55
2018-12-31T01:28:02.340Z,38.60
2018-12-31T01:30:30.742Z,43.92
2018-12-31T01:32:59.144Z,45.03
2018-12-31T01:35:27.627Z,37.97
2018-12-31T01:37:56.030Z,42.90
2018-12-31T01:40:24.435Z,40.60
2018-12-31T01:42:52.848Z,39.83
2018-12-31T01:45:21.538Z,44.08
2018-12-31T01:47:49.943Z,42.55
2018-12-31T01:50:18.348Z,41.95
2018-12-31T01:52:46.743Z,41.02
2018-12-31T01:55:15.163Z,44.53
2018-12-31T01:57:43.567Z,40.88
2018-12-31T02:00:11.969Z,39.90
2018-12-31T02:02:40.388Z,41.18
2018-12-31T02:05:08.790Z,42.15
2018-12-31T02:07:37.199Z,43.78
2018-12-31T02:10:06.886Z,43.85
2018-12-31T02:12:35.315Z,37.70
2018-12-31T02:15:04.629Z,40.58
2018-12-31T02:17:33.028Z,41.28
2018-12-31T02:20:01.432Z,41.98
2018-12-31T02:22:29.842Z,45.05
2018-12-31T02:24:58.241Z,44.03
2018-12-31T02:27:26.680Z,43.98
2018-12-31T02:29:55.080Z,49.70
2018-12-31T02:32:23.492Z,43.80
2018-12-31T02:34:52.269Z,44.80
2018-12-31T02:37:20.671Z,47.67
2018-12-31T02:39:49.083Z,43.73
2018-12-31T02:42:17.495Z,47.00
2018-12-31T02:44:45.897Z,48.98
2018-12-31T02:47:15.208Z,44.90
2018-12-31T02:49:43.805Z,47.20
2018-12-31T02:52:12.201Z,49.40
2018-12-31T02:54:40.621Z,52.38
2018-12-31T02:57:09.018Z,51.13
2018-12-31T02:59:37.415Z,48.58
2018-12-31T03:02:05.822Z,49.57
2018-12-31T03:04:34.221Z,55.40
2018-12-31T03:07:02.628Z,53.48
2018-12-31T03:09:31.027Z,51.68
2018-12-31T03:11:59.441Z,53.92
2018-12-31T03:14:27.841Z,49.38
2018-12-31T03:16:56.265Z,54.98
2018-12-31T03:19:24.671Z,62.90
2018-12-31T03:21:53.392Z,54.90
2018-12-31T03:24:21.800Z,55.97
2018-12-31T03:26:50.456Z,47.35
2018-12-31T03:29:19.784Z,55.05
2018-12-31T03:31:48.193Z,47.95
2018-12-31T03:34:16.597Z,52.45
2018-12-31T03:36:45.004Z,56.85
2018-12-31T03:39:13.408Z,49.58
2018-12-31T03:41:41.812Z,54.25
2018-12-31T03:44:10.495Z,53.27
2018-12-31T03:46:38.892Z,51.05
2018-12-31T03:49:07.303Z,54.57
2018-12-31T03:51:35.695Z,50.75
2018-12-31T03:54:23.451Z,50.65
2018-12-31T03:56:51.920Z,56.70
2018-12-31T03:59:20.666Z,50.88
2018-12-31T04:01:49.389Z,50.47
2018-12-31T04:04:17.788Z,57.40
2018-12-31T04:06:46.192Z,56.40
2018-12-31T04:09:14.589Z,54.83
2018-12-31T04:11:42.983Z,54.60
2018-12-31T04:14:11.396Z,56.23
2018-12-31T04:16:39.799Z,51.45
2018-12-31T04:19:08.207Z,56.05
2018-12-31T04:21:36.608Z,50.90
2018-12-31T04:24:05.012Z,48.28
2018-12-31T04:26:33.409Z,48.63
2018-12-31T04:29:01.827Z,52.75
2018-12-31T04:31:30.525Z,53.15
2018-12-31T04:33:58.956Z,49.67
2018-12-31T04:36:27.356Z,49.13
2018-12-31T04:38:55.764Z,51.20
2018-12-31T04:41:24.309Z,53.25
2018-12-31T04:43:52.744Z,54.80
2018-12-31T04:46:21.147Z,55.73
2018-12-31T04:48:49.558Z,58.17
2018-12-31T04:51:18.263Z,50.00
2018-12-31T04:53:46.953Z,49.08
2018-12-31T04:56:15.359Z,48.87
2018-12-31T04:58:43.768Z,52.48
2018-12-31T05:01:12.177Z,48.20
2018-12-31T05:03:40.574Z,59.20
2018-12-31T05:06:08.980Z,63.00
2018-12-31T05:08:37.377Z,61.00
2018-12-31T05:11:05.793Z,58.85
2018-12-31T05:13:34.200Z,68.35
2018-12-31T05:16:02.860Z,93.40
2018-12-31T05:18:31.558Z,77.90
2018-12-31T05:20:59.967Z,79.75
2018-12-31T05:23:28.476Z,102.10
2018-12-31T05:25:56.881Z,93.87
2018-12-31T05:28:25.588Z,75.80
2018-12-31T05:30:54.000Z,95.17
2018-12-31T05:33:22.397Z,72.70
2018-12-31T05:35:51.120Z,103.70
2018-12-31T05:38:19.531Z,83.63
2018-12-31T05:40:47.931Z,94.65
2018-12-31T05:43:16.335Z,117.08
2018-12-31T05:45:45.176Z,98.70
2018-12-31T05:48:14.034Z,87.47
2018-12-31T05:50:42.431Z,85.57
2018-12-31T05:53:10.844Z,78.95
2018-12-31T05:55:39.248Z,98.47
2018-12-31T05:58:07.667Z,100.10
2018-12-31T06:00:36.636Z,95.07
2018-12-31T06:03:05.322Z,78.20
2018-12-31T06:05:33.727Z,89.40
2018-12-31T06:08:02.139Z,72.95
2018-12-31T06:10:30.555Z,67.78
2018-12-31T06:12:58.959Z,67.80
2018-12-31T06:15:27.363Z,69.37
2018-12-31T06:17:55.768Z,62.43
2018-12-31T06:20:24.175Z,65.65
2018-12-31T06:22:52.580Z,58.28
2018-12-31T06:25:21.061Z,58.98
2018-12-31T06:27:49.467Z,50.97
2018-12-31T06:30:17.871Z,55.17
2018-12-31T06:32:46.277Z,60.45
2018-12-31T06:35:14.691Z,60.90
2018-12-31T06:37:43.102Z,64.92
2018-12-31T06:40:11.495Z,67.47
2018-12-31T06:42:39.902Z,65.42
2018-12-31T06:45:08.313Z,60.67
2018-12-31T06:47:36.731Z,59.23
2018-12-31T06:50:06.356Z,65.15
2018-12-31T06:52:34.768Z,69.80
2018-12-31T06:55:03.249Z,65.90
2018-12-31T06:57:31.672Z,65.12
2018-12-31T07:00:00.081Z,64.42
2018-12-31T07:02:28.557Z,60.52
2018-12-31T07:04:56.986Z,58.08
2018-12-31T07:07:25.383Z,53.63
2018-12-31T07:09:53.792Z,48.00
2018-12-31T07:12:22.192Z,49.98
2018-12-31T07:14:50.599Z,45.10
2018-12-31T07:17:19.008Z,46.85
2018-12-31T07:19:47.416Z,44.30
2018-12-31T07:22:15.821Z,40.40
2018-12-31T07:24:45.341Z,43.80
2018-12-31T07:27:14.011Z,41.90
2018-12-31T07:29:42.419Z,39.67
2018-12-31T07:32:10.831Z,38.30
2018-12-31T07:34:39.254Z,39.63
2018-12-31T07:37:07.659Z,40.63
2018-12-31T07:39:36.064Z,39.73
2018-12-31T07:42:04.468Z,39.53
2018-12-31T07:44:32.904Z,36.48
2018-12-31T07:47:01.312Z,40.60
2018-12-31T07:49:29.723Z,38.63
2018-12-31T07:51:58.124Z,35.10
2018-12-31T07:54:26.530Z,35.20
2018-12-31T07:56:54.933Z,34.65
2018-12-31T07:59:23.343Z,39.55
2018-12-31T08:01:51.757Z,38.35
2018-12-31T08:04:20.180Z,37.38
2018-12-31T08:06:48.573Z,35.73
2018-12-31T08:09:16.992Z,36.17
2018-12-31T08:11:45.414Z,40.05
2018-12-31T08:14:13.815Z,39.00
2018-12-31T08:16:42.809Z,37.98
2018-12-31T08:19:11.315Z,37.50
2018-12-31T08:21:39.731Z,36.75
2018-12-31T08:24:08.136Z,36.45
2018-12-31T08:26:36.545Z,34.15
2018-12-31T08:29:04.940Z,37.10
2018-12-31T08:31:33.361Z,38.35
2018-12-31T08:34:01.760Z,36.73
2018-12-31T08:36:30.177Z,35.83
2018-12-31T08:38:58.582Z,39.50
2018-12-31T08:41:26.984Z,41.08
2018-12-31T08:43:55.405Z,43.92
2018-12-31T08:46:24.208Z,43.98
2018-12-31T08:48:52.627Z,41.13
2018-12-31T08:51:21.038Z,44.50
2018-12-31T08:53:49.443Z,43.23
2018-12-31T08:56:17.839Z,49.20
2018-12-31T08:58:46.249Z,46.20
2018-12-31T09:01:14.688Z,54.38
2018-12-31T09:03:43.083Z,52.73
2018-12-31T09:06:11.489Z,54.80
2018-12-31T09:08:39.892Z,56.92
2018-12-31T09:11:08.294Z,56.77
2018-12-31T09:13:36.755Z,56.08
2018-12-31T09:16:05.172Z,60.60
2018-12-31T09:18:33.583Z,63.05
2018-12-31T09:21:01.993Z,57.08
2018-12-31T09:23:30.404Z,50.83
2018-12-31T09:25:58.813Z,61.92
2018-12-31T09:28:27.572Z,51.63
2018-12-31T09:30:55.976Z,56.95
2018-12-31T09:33:24.402Z,55.43
2018-12-31T09:35:52.800Z,48.75
2018-12-31T09:38:21.221Z,54.20
2018-12-31T09:40:49.624Z,54.18
2018-12-31T09:43:18.038Z,50.98
2018-12-31T09:45:46.440Z,49.50
2018-12-31T09:48:14.840Z,51.85
2018-12-31T09:50:43.244Z,52.62
2018-12-31T09:53:12.695Z,51.13
2018-12-31T09:55:41.585Z,52.65
2018-12-31T09:58:10.057Z,52.03
2018-12-31T10:00:38.452Z,50.55
2018-12-31T10:03:06.868Z,52.23
2018-12-31T10:05:35.267Z,54.10
2018-12-31T10:08:03.669Z,47.75
2018-12-31T10:10:32.084Z,47.85
2018-12-31T10:13:00.486Z,49.25
2018-12-31T10:15:28.896Z,51.33
2018-12-31T10:17:57.294Z,54.63
2018-12-31T10:20:25.708Z,52.98
2018-12-31T10:22:54.207Z,51.40
2018-12-31T10:25:22.615Z,70.80
2018-12-31T10:27:51.028Z,63.52
2018-12-31T10:30:19.436Z,53.83
2018-12-31T10:32:47.843Z,53.02
2018-12-31T10:35:16.247Z,66.15
2018-12-31T10:37:44.650Z,63.43
2018-12-31T10:40:13.061Z,55.48
2018-12-31T10:42:41.460Z,44.90
2018-12-31T10:45:09.864Z,52.73
2018-12-31T10:47:38.267Z,46.88
2018-12-31T10:50:06.672Z,52.90
2018-12-31T10:52:35.072Z,50.50
2018-12-31T10:55:03.488Z,46.05
2018-12-31T10:57:31.881Z,54.33
2018-12-31T11:00:00.304Z,49.27
2018-12-31T11:02:28.704Z,49.83
2018-12-31T11:04:57.108Z,47.58
2018-12-31T11:07:25.506Z,47.20
2018-12-31T11:09:54.221Z,48.63
2018-12-31T11:12:22.635Z,42.20
2018-12-31T11:14:51.032Z,46.37
2018-12-31T11:17:19.770Z,40.75
2018-12-31T11:19:48.194Z,34.83
2018-12-31T11:22:16.928Z,35.03
2018-12-31T11:24:45.328Z,36.30
2018-12-31T11:27:13.772Z,32.00
2018-12-31T11:29:42.172Z,31.85
2018-12-31T11:32:10.581Z,34.40
2018-12-31T11:34:38.973Z,30.45
2018-12-31T11:37:07.393Z,27.13
2018-12-31T11:39:35.795Z,26.40
2018-12-31T11:42:04.195Z,30.93
2018-12-31T11:44:32.600Z,34.35
2018-12-31T11:47:01.021Z,35.88
2018-12-31T11:49:29.421Z,36.77
2018-12-31T11:51:57.828Z,35.98
2018-12-31T11:54:26.232Z,35.75
2018-12-31T11:56:54.648Z,35.03
2018-12-31T11:59:23.051Z,32.13
2018-12-31T12:01:51.467Z,29.50
2018-12-31T12:04:19.867Z,33.53
2018-12-31T12:06:48.281Z,31.00
2018-12-31T12:09:16.684Z,28.32
2018-12-31T12:11:45.100Z,23.42
2018-12-31T12:14:13.497Z,36.47
2018-12-31T12:16:41.910Z,26.97
2018-12-31T12:19:10.313Z,26.12
2018-12-31T12:21:38.785Z,25.77
2018-12-31T12:24:07.220Z,23.05
2018-12-31T12:26:35.644Z,28.07
2018-12-31T12:29:04.039Z,29.67
2018-12-31T12:31:32.723Z,30.10
2018-12-31T12:34:01.461Z,25.25
2018-12-31T12:36:29.856Z,25.12
2018-12-31T12:38:58.600Z,25.40
2018-12-31T12:41:26.996Z,24.90
2018-12-31T12:43:55.788Z,26.93
2018-12-31T12:46:24.189Z,29.00
2018-12-31T12:48:52.616Z,29.30
2018-12-31T12:51:21.025Z,31.48
2018-12-31T12:53:49.440Z,33.23
2018-12-31T12:56:17.832Z,32.98
2018-12-31T12:58:46.315Z,33.98
2018-12-31T13:01:14.715Z,34.70
2018-12-31T13:03:43.125Z,34.27
2018-12-31T13:06:11.597Z,36.67
2018-12-31T13:08:40.017Z,38.92
2018-12-31T13:11:08.424Z,31.15
2018-12-31T13:13:36.832Z,29.92
2018-12-31T13:16:05.233Z,28.77
2018-12-31T13:18:33.639Z,25.60
2018-12-31T13:21:02.044Z,27.80
2018-12-31T13:23:30.555Z,22.85
2018-12-31T13:25:58.959Z,26.25
2018-12-31T13:28:27.363Z,26.97
2018-12-31T13:30:55.769Z,24.75
2018-12-31T13:33:24.173Z,26.10
2018-12-31T13:35:52.965Z,26.70
2018-12-31T13:38:21.378Z,27.27
2018-12-31T13:40:49.792Z,30.37
2018-12-31T13:43:18.188Z,30.47
2018-12-31T13:45:46.605Z,29.72
2018-12-31T13:48:15.475Z,26.17
2018-12-31T13:50:43.880Z,28.65
2018-12-31T13:53:12.288Z,28.35
2018-12-31T13:55:40.699Z,32.40
2018-12-31T13:58:09.088Z,27.80
2018-12-31T14:00:38.009Z,29.80
2018-12-31T14:03:06.447Z,31.17
2018-12-31T14:05:34.860Z,29.18
2018-12-31T14:08:03.265Z,30.95
2018-12-31T14:10:31.755Z,31.12
2018-12-31T14:13:00.527Z,29.45
2018-12-31T14:15:28.951Z,28.50
2018-12-31T14:17:57.367Z,30.83
2018-12-31T14:20:25.782Z,29.32
2018-12-31T14:22:54.176Z,27.55
2018-12-31T14:25:22.594Z,29.23
2018-12-31T14:27:51.003Z,29.92
2018-12-31T14:30:19.401Z,32.88
2018-12-31T14:32:48.076Z,28.45
2018-12-31T14:35:16.483Z,34.83
2018-12-31T14:37:44.885Z,31.45
2018-12-31T14:40:13.326Z,38.58
2018-12-31T14:42:41.759Z,36.10
2018-12-31T14:45:10.196Z,34.95
2018-12-31T14:47:38.610Z,34.70
2018-12-31T14:50:07.340Z,34.15
2018-12-31T14:52:35.772Z,37.95
2018-12-31T14:55:04.542Z,41.80
2018-12-31T14:57:32.991Z,38.17
2018-12-31T15:00:01.393Z,42.50
2018-12-31T15:02:29.827Z,38.65
2018-12-31T15:04:58.608Z,37.27
2018-12-31T15:07:27.024Z,34.83
2018-12-31T15:09:55.427Z,34.55
2018-12-31T15:12:23.856Z,31.33
2018-12-31T15:14:52.252Z,28.87
2018-12-31T15:17:21.048Z,36.60
2018-12-31T15:19:49.443Z,36.07
2018-12-31T15:22:17.855Z,32.10
2018-12-31T15:24:46.269Z,36.05
2018-12-31T15:27:14.685Z,30.62
2018-12-31T15:29:43.080Z,35.80
2018-12-31T15:32:11.495Z,34.53
2018-12-31T15:34:39.904Z,34.92
2018-12-31T15:37:08.336Z,30.37
2018-12-31T15:39:36.724Z,29.55
2018-12-31T15:42:05.130Z,28.93
2018-12-31T15:44:33.529Z,33.30
2018-12-31T15:47:01.940Z,29.00
2018-12-31T15:49:30.343Z,27.85
2018-12-31T15:51:58.759Z,33.38
2018-12-31T15:54:27.155Z,32.45
2018-12-31T15:56:55.943Z,34.37
2018-12-31T15:59:25.507Z,36.13
2018-12-31T16:01:54.235Z,33.43
2018-12-31T16:04:22.636Z,33.58
2018-12-31T16:06:51.053Z,32.85
2018-12-31T16:09:19.827Z,32.78
2018-12-31T16:11:48.248Z,26.73
2018-12-31T16:14:16.648Z,29.92
2018-12-31T16:16:45.062Z,26.67
2018-12-31T16:19:13.467Z,30.95
2018-12-31T16:21:41.882Z,29.10
2018-12-31T16:24:10.573Z,30.35
2018-12-31T16:26:38.992Z,39.73
2018-12-31T16:29:07.464Z,26.95
2018-12-31T16:31:35.876Z,32.95
2018-12-31T16:34:04.271Z,29.20
2018-12-31T16:36:32.680Z,27.82
2018-12-31T16:39:01.080Z,28.57
2018-12-31T16:41:29.540Z,35.43
2018-12-31T16:43:57.979Z,27.07
2018-12-31T16:46:26.445Z,27.00
2018-12-31T16:48:55.575Z,25.12
2018-12-31T16:51:23.989Z,43.58
2018-12-31T16:53:52.400Z,31.87
2018-12-31T16:56:20.808Z,26.57
2018-12-31T16:58:49.254Z,27.35
2018-12-31T17:01:18.028Z,23.95
2018-12-31T17:03:46.416Z,26.53
2018-12-31T17:06:14.832Z,25.15
2018-12-31T17:08:43.233Z,24.95
2018-12-31T17:11:11.643Z,25.37
2018-12-31T17:13:40.051Z,28.27
2018-12-31T17:16:08.461Z,29.95
2018-12-31T17:18:36.867Z,30.45
2018-12-31T17:21:05.264Z,46.02
2018-12-31T17:23:33.671Z,37.53
2018-12-31T17:26:02.081Z,52.20
2018-12-31T17:28:30.867Z,44.07
2018-12-31T17:30:59.282Z,122.02
2018-12-31T17:33:29.148Z,41.90
2018-12-31T17:35:57.771Z,32.93
2018-12-31T17:38:26.175Z,31.82
2018-12-31T17:40:54.854Z,27.77
2018-12-31T17:43:23.268Z,35.40
2018-12-31T17:45:51.676Z,39.88
2018-12-31T17:48:20.087Z,34.33
2018-12-31T17:50:48.492Z,35.33
2018-12-31T17:53:16.897Z,29.72
2018-12-31T17:55:45.291Z,38.90
2018-12-31T17:58:13.704Z,30.25
2018-12-31T18:00:42.103Z,33.38
2018-12-31T18:03:10.506Z,29.10
2018-12-31T18:05:38.919Z,29.10
2018-12-31T18:08:07.703Z,28.40
2018-12-31T18:10:36.112Z,25.35
2018-12-31T18:13:04.520Z,22.00
2018-12-31T18:15:32.923Z,20.43
2018-12-31T18:18:01.448Z,21.35
2018-12-31T18:20:30.209Z,20.90
2018-12-31T18:22:58.608Z,19.20
2018-12-31T18:25:27.023Z,26.62
2018-12-31T18:27:55.423Z,24.72
2018-12-31T18:30:23.832Z,23.13
2018-12-31T18:32:52.239Z,24.63
2018-12-31T18:35:20.653Z,28.32
2018-12-31T18:37:49.059Z,28.30
2018-12-31T18:40:17.464Z,32.97
2018-12-31T18:42:45.862Z,32.05
2018-12-31T18:45:14.564Z,39.03
2018-12-31T18:47:42.963Z,26.23
2018-12-31T18:50:11.388Z,25.72
2018-12-31T18:52:39.793Z,26.12
2018-12-31T18:55:08.196Z,24.03
2018-12-31T18:57:36.592Z,27.20
2018-12-31T19:00:07.532Z,23.90
2018-12-31T19:02:35.931Z,26.57
2018-12-31T19:05:04.699Z,22.65
2018-12-31T19:07:33.095Z,23.27
2018-12-31T19:10:01.511Z,21.60
2018-12-31T19:12:30.435Z,22.80
2018-12-31T19:14:58.852Z,22.50
2018-12-31T19:17:27.248Z,24.63
2018-12-31T19:19:55.972Z,23.47
2018-12-31T19:22:24.375Z,28.62
2018-12-31T19:24:52.775Z,31.30
2018-12-31T19:27:21.183Z,31.00
2018-12-31T19:29:49.603Z,36.10
2018-12-31T19:32:18.004Z,32.42
2018-12-31T19:34:46.409Z,33.53
2018-12-31T19:37:14.822Z,31.50
2018-12-31T19:39:43.491Z,22.52
2018-12-31T19:42:11.919Z,21.73
2018-12-31T19:44:40.319Z,21.73
2018-12-31T19:47:08.744Z,18.40
2018-12-31T19:49:37.152Z,20.17
2018-12-31T19:52:05.559Z,19.10
2018-12-31T19:54:33.965Z,20.90
2018-12-31T19:57:02.376Z,24.30
2018-12-31T19:59:30.777Z,27.30
2018-12-31T20:01:59.180Z,25.80
2018-12-31T20:04:27.584Z,23.70
2018-12-31T20:07:01.168Z,49.75
2018-12-31T20:09:26.120Z,45.55
2018-12-31T20:11:54.536Z,58.20
2018-12-31T20:14:22.943Z,29.95
2018-12-31T20:16:51.353Z,28.17
2018-12-31T20:19:20.037Z,23.10
2018-12-31T20:21:48.444Z,23.98
2018-12-31T20:24:16.880Z,26.95
2018-12-31T20:26:45.288Z,33.92
2018-12-31T20:29:14.016Z,27.10
2018-12-31T20:31:42.428Z,34.13
2018-12-31T20:34:10.837Z,36.03
2018-12-31T20:36:39.315Z,43.33
2018-12-31T20:39:07.722Z,41.92
2018-12-31T20:41:36.145Z,45.92
2018-12-31T20:44:04.543Z,61.20
2018-12-31T20:46:32.960Z,53.60
2018-12-31T20:49:01.379Z,50.78
2018-12-31T20:51:29.784Z,59.85
2018-12-31T20:53:58.381Z,51.37
2018-12-31T20:56:26.789Z,49.08
2018-12-31T20:58:55.226Z,41.30
2018-12-31T21:01:24.106Z,43.95
2018-12-31T21:03:52.553Z,38.53
2018-12-31T21:06:21.085Z,39.65
2018-12-31T21:08:49.990Z,42.45
2018-12-31T21:11:18.565Z,37.88
2018-12-31T21:13:47.067Z,34.03
2018-12-31T21:16:15.588Z,31.75
2018-12-31T21:18:44.084Z,28.42
2018-12-31T21:21:12.540Z,31.52
2018-12-31T21:23:41.290Z,29.07
2018-12-31T21:26:10.881Z,29.98
2018-12-31T21:28:39.784Z,32.28
2018-12-31T21:31:08.189Z,68.22
2018-12-31T21:33:36.603Z,34.20
2018-12-31T21:36:05.009Z,39.45
2018-12-31T21:38:33.417Z,29.37
2018-12-31T21:41:01.816Z,25.48
2018-12-31T21:43:30.228Z,26.42
2018-12-31T21:45:58.634Z,28.00
2018-12-31T21:48:27.044Z,25.97
2018-12-31T21:50:55.456Z,25.47
2018-12-31T21:53:24.192Z,25.43
2018-12-31T21:55:52.668Z,24.13
2018-12-31T21:58:21.077Z,23.20
2018-12-31T22:00:49.479Z,25.52
2018-12-31T22:03:17.899Z,23.52
2018-12-31T22:05:46.556Z,23.15
2018-12-31T22:08:14.966Z,21.95
2018-12-31T22:10:43.371Z,24.40
2018-12-31T22:13:11.771Z,23.65
2018-12-31T22:15:40.189Z,32.65
2018-12-31T22:18:08.596Z,25.88
2018-12-31T22:20:36.991Z,46.53
2018-12-31T22:23:05.456Z,27.87
2018-12-31T22:25:34.192Z,83.97
2018-12-31T22:28:02.587Z,31.77
2018-12-31T22:30:30.996Z,25.72
2018-12-31T22:32:59.399Z,30.15
2018-12-31T22:35:28.188Z,30.02
2018-12-31T22:37:56.591Z,42.03
2018-12-31T22:40:24.995Z,59.73
2018-12-31T22:42:53.405Z,31.47
2018-12-31T22:45:21.819Z,31.27
2018-12-31T22:47:50.218Z,30.00
2018-12-31T22:50:18.620Z,32.70
2018-12-31T22:52:47.020Z,32.30
2018-12-31T22:55:15.419Z,42.33
2018-12-31T22:57:43.819Z,50.70
2018-12-31T23:00:12.251Z,121.70
2018-12-31T23:02:40.670Z,357.67
2018-12-31T23:05:09.720Z,536.65
2018-12-31T23:07:38.127Z,403.48
2018-12-31T23:10:08.674Z,425.75
2018-12-31T23:12:37.087Z,329.45
2018-12-31T23:15:08.964Z,421.95
2018-12-31T23:17:37.384Z,410.32
2018-12-31T23:20:08.828Z,348.80
2018-12-31T23:22:37.403Z,245.88
2018-12-31T23:25:05.819Z,188.40
2018-12-31T23:27:34.299Z,223.13
2018-12-31T23:30:02.795Z,224.88
2018-12-31T23:32:31.195Z,188.40
2018-12-31T23:34:59.617Z,138.32
2018-12-31T23:37:28.021Z,156.15
2018-12-31T23:39:56.426Z,127.17
2018-12-31T23:42:24.835Z,101.05
2018-12-31T23:44:53.444Z,67.30
2018-12-31T23:47:22.236Z,61.40
2018-12-31T23:49:50.635Z,50.05
2018-12-31T23:52:19.051Z,52.05
2018-12-31T23:54:47.787Z,44.42
2018-12-31T23:57:16.188Z,44.88
2018-12-31T23:59:44.601Z,48.60
